createdAt,value
2023-08-27T00:01:19.622Z,25.59
2023-08-27T00:03:46.778Z,25.28
2023-08-27T00:06:13.870Z,25.74
2023-08-27T00:08:40.871Z,26.22
2023-08-27T00:11:07.846Z,26.21
2023-08-27T00:13:34.959Z,25.98
2023-08-27T00:16:02.025Z,25.71
2023-08-27T00:18:29.171Z,25.44
2023-08-27T00:20:57.339Z,25.09
2023-08-27T00:23:24.844Z,25.44
2023-08-27T00:25:52.050Z,25.91
2023-08-27T00:28:19.002Z,25.89
2023-08-27T00:30:46.178Z,25.66
2023-08-27T00:33:13.258Z,25.36
2023-08-27T00:35:40.332Z,25.07
2023-08-27T00:38:07.584Z,24.79
2023-08-27T00:40:35.695Z,25.25
2023-08-27T00:43:03.767Z,25.78
2023-08-27T00:45:31.525Z,25.80
2023-08-27T00:47:58.757Z,25.57
2023-08-27T00:50:26.866Z,25.26
2023-08-27T00:52:54.477Z,24.99
2023-08-27T00:55:21.511Z,24.71
2023-08-27T00:57:48.513Z,25.17
2023-08-27T01:00:15.761Z,25.71
2023-08-27T01:02:43.976Z,25.74
2023-08-27T01:05:13.449Z,25.54
2023-08-27T01:08:21.821Z,25.24
2023-08-27T01:11:06.494Z,24.87
2023-08-27T01:13:48.867Z,24.56
2023-08-27T01:16:15.936Z,25.19
2023-08-27T01:18:42.988Z,25.61
2023-08-27T01:21:20.202Z,25.53
2023-08-27T01:23:47.250Z,25.24
2023-08-27T01:26:18.871Z,24.94
2023-08-27T01:28:47.394Z,24.65
2023-08-27T01:31:18.610Z,24.33
2023-08-27T01:33:46.423Z,24.82
2023-08-27T01:36:13.515Z,25.31
2023-08-27T01:38:40.901Z,25.30
2023-08-27T01:41:08.034Z,25.08
2023-08-27T01:43:35.147Z,24.81
2023-08-27T01:46:02.140Z,24.52
2023-08-27T01:48:29.453Z,24.21
2023-08-27T01:50:56.500Z,24.64
2023-08-27T01:53:23.573Z,25.15
2023-08-27T01:55:50.510Z,25.18
2023-08-27T01:58:17.558Z,24.98
2023-08-27T02:00:44.712Z,24.72
2023-08-27T02:03:11.759Z,24.48
2023-08-27T02:05:38.870Z,24.20
2023-08-27T02:08:06.186Z,24.71
2023-08-27T02:10:33.218Z,25.24
2023-08-27T02:13:00.463Z,25.27
2023-08-27T02:15:27.652Z,25.06
2023-08-27T02:17:54.639Z,24.78
2023-08-27T02:20:21.658Z,24.47
2023-08-27T02:22:48.763Z,24.15
2023-08-27T02:25:15.844Z,24.57
2023-08-27T02:27:42.823Z,25.09
2023-08-27T02:30:10.515Z,25.08
2023-08-27T02:32:37.703Z,24.84
2023-08-27T02:35:05.313Z,24.53
2023-08-27T02:37:32.372Z,24.23
2023-08-27T02:39:59.398Z,23.92
2023-08-27T02:42:26.402Z,24.35
2023-08-27T02:44:53.491Z,24.87
2023-08-27T02:47:20.568Z,24.88
2023-08-27T02:49:47.597Z,24.63
2023-08-27T02:52:16.019Z,24.31
2023-08-27T02:54:42.981Z,24.01
2023-08-27T02:57:10.218Z,23.73
2023-08-27T02:59:37.309Z,24.20
2023-08-27T03:02:04.552Z,24.71
2023-08-27T03:04:31.842Z,24.69
2023-08-27T03:06:58.908Z,24.46
2023-08-27T03:09:26.031Z,24.14
2023-08-27T03:11:52.966Z,23.84
2023-08-27T03:14:22.385Z,23.50
2023-08-27T03:16:49.442Z,23.94
2023-08-27T03:19:16.442Z,24.43
2023-08-27T03:21:43.543Z,24.41
2023-08-27T03:24:13.030Z,24.18
2023-08-27T03:26:40.080Z,23.89
2023-08-27T03:29:07.150Z,23.59
2023-08-27T03:31:34.411Z,23.36
2023-08-27T03:34:01.560Z,23.87
2023-08-27T03:36:29.534Z,24.42
2023-08-27T03:38:56.634Z,24.44
2023-08-27T03:41:23.769Z,24.22
2023-08-27T03:43:50.827Z,23.92
2023-08-27T03:46:17.913Z,23.64
2023-08-27T03:48:44.921Z,23.37
2023-08-27T03:51:14.208Z,23.88
2023-08-27T03:53:41.257Z,24.46
2023-08-27T03:56:08.238Z,24.50
2023-08-27T03:58:35.392Z,24.32
2023-08-27T04:01:02.492Z,24.08
2023-08-27T04:03:30.175Z,23.84
2023-08-27T04:05:57.520Z,23.60
2023-08-27T04:08:24.627Z,24.13
2023-08-27T04:10:57.562Z,24.70
2023-08-27T04:13:24.681Z,24.74
2023-08-27T04:16:01.807Z,24.57
2023-08-27T04:18:30.531Z,24.34
2023-08-27T04:20:57.473Z,24.12
2023-08-27T04:23:26.250Z,23.86
2023-08-27T04:25:53.458Z,24.39
2023-08-27T04:28:20.524Z,25.03
2023-08-27T04:30:51.572Z,25.15
2023-08-27T04:33:18.521Z,24.99
2023-08-27T04:35:53.851Z,24.78
2023-08-27T04:38:21.854Z,24.55
2023-08-27T04:40:53.103Z,24.38
2023-08-27T04:43:20.658Z,24.21
2023-08-27T04:45:47.775Z,24.70
2023-08-27T04:48:16.095Z,25.15
2023-08-27T04:50:47.188Z,25.20
2023-08-27T04:53:14.307Z,25.09
2023-08-27T04:55:41.672Z,24.96
2023-08-27T04:58:09.838Z,24.80
2023-08-27T05:00:38.202Z,24.59
2023-08-27T05:03:05.559Z,25.20
2023-08-27T05:05:32.673Z,25.93
2023-08-27T05:08:00.008Z,26.19
2023-08-27T05:10:27.368Z,26.28
2023-08-27T05:12:55.412Z,26.23
2023-08-27T05:15:22.598Z,26.21
2023-08-27T05:17:50.092Z,26.20
2023-08-27T05:20:17.230Z,26.95
2023-08-27T05:22:44.297Z,27.63
2023-08-27T05:25:11.509Z,27.70
2023-08-27T05:27:45.191Z,27.47
2023-08-27T05:30:15.406Z,27.19
2023-08-27T05:32:44.673Z,26.95
2023-08-27T05:35:11.999Z,26.69
2023-08-27T05:37:39.247Z,26.52
2023-08-27T05:40:07.506Z,26.42
2023-08-27T05:42:36.035Z,27.06
2023-08-27T05:45:04.579Z,27.71
2023-08-27T05:47:32.373Z,27.84
2023-08-27T05:49:59.901Z,27.89
2023-08-27T05:52:27.555Z,27.95
2023-08-27T05:54:55.504Z,28.13
2023-08-27T05:57:23.239Z,28.35
2023-08-27T05:59:50.277Z,29.27
2023-08-27T06:02:18.766Z,30.25
2023-08-27T06:04:46.089Z,30.69
2023-08-27T06:07:13.391Z,30.62
2023-08-27T06:09:40.439Z,30.38
2023-08-27T06:12:07.996Z,30.19
2023-08-27T06:14:35.442Z,30.09
2023-08-27T06:17:02.557Z,30.09
2023-08-27T06:19:42.951Z,29.83
2023-08-27T06:22:15.185Z,29.48
2023-08-27T06:24:42.250Z,29.36
2023-08-27T06:27:09.449Z,29.38
2023-08-27T06:29:37.057Z,29.46
2023-08-27T06:32:04.312Z,29.69
2023-08-27T06:34:33.962Z,29.93
2023-08-27T06:37:00.995Z,30.14
2023-08-27T06:39:28.467Z,30.32
2023-08-27T06:41:55.529Z,30.34
2023-08-27T06:44:23.075Z,29.94
2023-08-27T06:46:54.301Z,30.17
2023-08-27T06:49:21.328Z,30.23
2023-08-27T06:51:48.360Z,30.29
2023-08-27T06:54:15.488Z,30.16
2023-08-27T06:56:42.531Z,30.48
2023-08-27T06:59:11.812Z,30.97
2023-08-27T07:01:40.893Z,31.30
2023-08-27T07:04:08.319Z,31.43
2023-08-27T07:06:35.533Z,31.62
2023-08-27T07:09:02.840Z,31.59
2023-08-27T07:11:30.162Z,31.68
2023-08-27T07:13:57.405Z,31.85
2023-08-27T07:16:24.511Z,32.08
2023-08-27T07:18:51.814Z,31.92
2023-08-27T07:21:19.118Z,32.21
2023-08-27T07:23:46.225Z,32.50
2023-08-27T07:26:13.334Z,32.71
2023-08-27T07:28:40.483Z,32.49
2023-08-27T07:31:07.520Z,32.81
2023-08-27T07:33:36.097Z,32.98
2023-08-27T07:36:03.646Z,33.05
2023-08-27T07:38:30.978Z,33.14
2023-08-27T07:40:58.031Z,33.13
2023-08-27T07:43:25.662Z,32.64
2023-08-27T07:45:52.630Z,32.49
2023-08-27T07:48:19.837Z,32.55
2023-08-27T07:50:48.459Z,32.75
2023-08-27T07:53:15.472Z,32.93
2023-08-27T07:55:42.475Z,33.02
2023-08-27T07:58:09.962Z,33.09
2023-08-27T08:00:38.405Z,33.01
2023-08-27T08:03:05.903Z,33.26
2023-08-27T08:05:33.127Z,33.56
2023-08-27T08:08:00.419Z,33.59
2023-08-27T08:10:27.660Z,33.58
2023-08-27T08:12:54.863Z,33.62
2023-08-27T08:15:22.061Z,33.64
2023-08-27T08:17:49.337Z,33.76
2023-08-27T08:20:16.519Z,33.98
2023-08-27T08:22:43.577Z,34.19
2023-08-27T08:25:10.543Z,34.39
2023-08-27T08:27:37.596Z,34.56
2023-08-27T08:30:05.591Z,34.65
2023-08-27T08:32:34.486Z,34.32
2023-08-27T08:35:02.547Z,34.56
2023-08-27T08:37:29.705Z,34.68
2023-08-27T08:39:56.781Z,34.71
2023-08-27T08:42:33.390Z,34.78
2023-08-27T08:45:14.841Z,34.86
2023-08-27T08:47:42.008Z,34.98
2023-08-27T08:50:09.562Z,35.09
2023-08-27T08:52:40.628Z,35.21
2023-08-27T08:55:09.034Z,35.26
2023-08-27T08:57:37.699Z,35.27
2023-08-27T09:00:05.021Z,35.30
2023-08-27T09:02:32.297Z,35.35
2023-08-27T09:04:59.351Z,35.39
2023-08-27T09:07:26.275Z,35.41
2023-08-27T09:09:53.339Z,35.54
2023-08-27T09:13:23.624Z,35.40
2023-08-27T09:15:50.987Z,35.10
2023-08-27T09:18:18.350Z,35.18
2023-08-27T09:20:45.405Z,35.11
2023-08-27T09:23:13.390Z,35.07
2023-08-27T09:25:42.762Z,35.08
2023-08-27T09:28:09.882Z,34.80
2023-08-27T09:30:36.908Z,34.95
2023-08-27T09:33:04.951Z,34.98
2023-08-27T09:35:39.165Z,34.87
2023-08-27T09:38:06.584Z,34.77
2023-08-27T09:40:33.692Z,34.69
2023-08-27T09:43:07.726Z,34.76
2023-08-27T09:45:35.571Z,34.83
2023-08-27T09:48:04.136Z,34.74
2023-08-27T09:50:32.434Z,34.82
2023-08-27T09:53:11.643Z,34.53
2023-08-27T09:55:38.677Z,34.41
2023-08-27T09:58:05.867Z,34.18
2023-08-27T10:00:33.687Z,34.26
2023-08-27T10:03:00.745Z,34.28
2023-08-27T10:05:29.805Z,34.21
2023-08-27T10:07:59.032Z,34.15
2023-08-27T10:10:28.062Z,33.87
2023-08-27T10:12:55.900Z,34.07
2023-08-27T10:15:24.338Z,34.36
2023-08-27T10:17:53.387Z,34.59
2023-08-27T10:20:21.075Z,34.69
2023-08-27T10:22:48.330Z,34.77
2023-08-27T10:25:19.002Z,34.87
2023-08-27T10:27:48.537Z,34.69
2023-08-27T10:30:17.082Z,34.58
2023-08-27T10:32:45.803Z,34.57
2023-08-27T10:35:12.871Z,34.45
2023-08-27T10:37:44.775Z,34.30
2023-08-27T10:40:13.543Z,34.54
2023-08-27T10:42:41.018Z,34.72
2023-08-27T10:45:13.078Z,34.80
2023-08-27T10:47:40.686Z,35.02
2023-08-27T10:50:08.298Z,35.23
2023-08-27T10:52:51.330Z,35.36
2023-08-27T10:55:22.376Z,35.53
2023-08-27T10:57:49.559Z,35.55
2023-08-27T11:00:16.827Z,35.52
2023-08-27T11:02:58.906Z,35.22
2023-08-27T11:05:28.088Z,34.78
2023-08-27T11:07:59.912Z,34.74
2023-08-27T11:10:32.266Z,34.65
2023-08-27T11:12:59.674Z,34.85
2023-08-27T11:15:33.042Z,34.98
2023-08-27T11:18:01.502Z,35.02
2023-08-27T11:20:29.128Z,35.02
2023-08-27T11:23:03.503Z,34.84
2023-08-27T11:25:31.550Z,34.78
2023-08-27T11:28:02.485Z,34.70
2023-08-27T11:30:31.262Z,34.57
2023-08-27T11:32:58.684Z,34.50
2023-08-27T11:35:28.809Z,34.62
2023-08-27T11:37:56.225Z,34.71
2023-08-27T11:40:28.228Z,34.71
2023-08-27T11:42:56.862Z,34.89
2023-08-27T11:45:36.244Z,35.13
2023-08-27T11:48:05.117Z,35.28
2023-08-27T11:50:34.190Z,35.37
2023-08-27T11:53:02.623Z,35.45
2023-08-27T11:55:29.958Z,35.56
2023-08-27T11:57:56.994Z,35.72
2023-08-27T12:00:24.064Z,35.37
2023-08-27T12:02:51.247Z,35.21
2023-08-27T12:05:18.697Z,35.28
2023-08-27T12:07:45.667Z,35.45
2023-08-27T12:10:15.003Z,35.70
2023-08-27T12:12:42.891Z,35.85
2023-08-27T12:15:10.301Z,35.86
2023-08-27T12:17:37.841Z,36.13
2023-08-27T12:20:07.013Z,36.36
2023-08-27T12:22:44.514Z,36.67
2023-08-27T12:25:13.331Z,36.88
2023-08-27T12:27:43.677Z,36.90
2023-08-27T12:30:14.391Z,36.98
2023-08-27T12:32:41.616Z,36.88
2023-08-27T12:35:09.179Z,36.86
2023-08-27T12:37:36.301Z,36.65
2023-08-27T12:40:03.883Z,36.52
2023-08-27T12:42:31.137Z,36.56
2023-08-27T12:44:58.212Z,36.74
2023-08-27T12:47:25.219Z,36.80
2023-08-27T12:49:52.431Z,36.76
2023-08-27T12:52:20.708Z,36.83
2023-08-27T12:54:48.442Z,36.95
2023-08-27T12:57:15.422Z,36.99
2023-08-27T12:59:42.512Z,36.89
2023-08-27T13:02:10.714Z,36.69
2023-08-27T13:04:37.969Z,36.47
2023-08-27T13:07:04.969Z,36.51
2023-08-27T13:09:32.145Z,36.49
2023-08-27T13:11:59.972Z,36.45
2023-08-27T13:14:26.946Z,36.57
2023-08-27T13:16:54.013Z,36.64
2023-08-27T13:19:21.114Z,36.49
2023-08-27T13:21:48.373Z,36.75
2023-08-27T13:24:15.480Z,36.85
2023-08-27T13:26:42.550Z,36.53
2023-08-27T13:29:09.675Z,36.24
2023-08-27T13:31:36.816Z,36.16
2023-08-27T13:34:04.422Z,36.36
2023-08-27T13:36:31.917Z,36.48
2023-08-27T13:38:59.902Z,36.60
2023-08-27T13:41:27.099Z,36.83
2023-08-27T13:43:54.076Z,37.01
2023-08-27T13:46:21.684Z,37.10
2023-08-27T13:48:48.843Z,37.03
2023-08-27T13:51:16.742Z,36.87
2023-08-27T13:53:43.898Z,36.89
2023-08-27T13:56:11.026Z,36.78
2023-08-27T13:58:39.009Z,36.97
2023-08-27T14:01:06.979Z,37.12
2023-08-27T14:03:34.373Z,37.13
2023-08-27T14:06:01.583Z,37.21
2023-08-27T14:08:30.152Z,36.98
2023-08-27T14:10:57.697Z,36.97
2023-08-27T14:13:24.768Z,36.82
2023-08-27T14:15:52.104Z,36.73
2023-08-27T14:18:19.800Z,36.79
2023-08-27T14:20:47.214Z,36.84
2023-08-27T14:23:14.318Z,36.71
2023-08-27T14:25:41.905Z,36.74
2023-08-27T14:28:08.995Z,36.77
2023-08-27T14:30:36.551Z,36.82
2023-08-27T14:33:04.112Z,36.85
2023-08-27T14:35:31.318Z,36.96
2023-08-27T14:37:58.357Z,36.90
2023-08-27T14:40:25.325Z,36.81
2023-08-27T14:42:52.403Z,36.81
2023-08-27T14:45:19.399Z,36.79
2023-08-27T14:47:46.519Z,36.91
2023-08-27T14:50:18.712Z,36.93
2023-08-27T14:52:47.126Z,36.74
2023-08-27T14:55:14.188Z,36.71
2023-08-27T14:57:41.287Z,36.65
2023-08-27T15:00:09.801Z,36.71
2023-08-27T15:02:37.261Z,36.87
2023-08-27T15:05:04.752Z,36.98
2023-08-27T15:07:31.875Z,37.01
2023-08-27T15:09:59.248Z,36.99
2023-08-27T15:12:26.237Z,36.87
2023-08-27T15:14:53.285Z,36.70
2023-08-27T15:17:20.933Z,36.64
2023-08-27T15:19:48.578Z,36.72
2023-08-27T15:22:15.701Z,36.81
2023-08-27T15:24:42.936Z,36.91
2023-08-27T15:27:09.917Z,36.90
2023-08-27T15:29:36.884Z,36.85
2023-08-27T15:32:05.785Z,36.77
2023-08-27T15:34:32.906Z,36.70
2023-08-27T15:36:59.908Z,36.60
2023-08-27T15:39:26.949Z,36.52
2023-08-27T15:41:54.054Z,36.41
2023-08-27T15:44:21.141Z,36.28
2023-08-27T15:46:48.372Z,36.21
2023-08-27T15:49:15.380Z,36.07
2023-08-27T15:51:42.340Z,35.87
2023-08-27T15:54:09.405Z,35.66
2023-08-27T15:56:36.926Z,35.49
2023-08-27T15:59:04.083Z,35.34
2023-08-27T16:01:31.233Z,35.22
2023-08-27T16:03:58.312Z,35.14
2023-08-27T16:06:25.573Z,35.05
2023-08-27T16:08:55.116Z,34.99
2023-08-27T16:11:23.105Z,34.87
2023-08-27T16:13:50.205Z,34.74
2023-08-27T16:16:17.283Z,34.67
2023-08-27T16:18:44.464Z,34.62
2023-08-27T16:21:13.447Z,34.57
2023-08-27T16:23:40.616Z,34.51
2023-08-27T16:26:07.962Z,34.43
2023-08-27T16:28:35.035Z,34.34
2023-08-27T16:31:02.226Z,34.24
2023-08-27T16:33:29.680Z,34.12
2023-08-27T16:35:56.689Z,33.99
2023-08-27T16:38:23.814Z,33.87
2023-08-27T16:40:50.939Z,33.75
2023-08-27T16:43:18.014Z,33.61
2023-08-27T16:45:50.912Z,33.51
2023-08-27T16:48:18.044Z,33.37
2023-08-27T16:50:45.128Z,33.19
2023-08-27T16:53:12.131Z,32.97
2023-08-27T16:55:39.299Z,32.72
2023-08-27T16:58:06.864Z,32.53
2023-08-27T17:00:33.944Z,32.39
2023-08-27T17:03:01.144Z,32.29
2023-08-27T17:05:28.400Z,32.17
2023-08-27T17:07:55.508Z,32.04
2023-08-27T17:10:22.701Z,31.89
2023-08-27T17:12:49.762Z,31.73
2023-08-27T17:15:16.889Z,31.56
2023-08-27T17:17:44.007Z,31.38
2023-08-27T17:20:11.441Z,31.25
2023-08-27T17:22:39.305Z,31.16
2023-08-27T17:25:07.152Z,31.10
2023-08-27T17:27:34.504Z,31.01
2023-08-27T17:30:01.927Z,30.89
2023-08-27T17:32:28.971Z,30.79
2023-08-27T17:34:56.000Z,30.69
2023-08-27T17:37:23.008Z,30.59
2023-08-27T17:39:51.305Z,30.49
2023-08-27T17:42:18.416Z,30.33
2023-08-27T17:44:45.468Z,30.83
2023-08-27T17:47:13.039Z,31.43
2023-08-27T17:49:41.796Z,31.51
2023-08-27T17:52:08.844Z,31.30
2023-08-27T17:54:35.859Z,30.98
2023-08-27T17:57:02.960Z,30.67
2023-08-27T17:59:30.400Z,30.40
2023-08-27T18:01:57.485Z,30.18
2023-08-27T18:04:24.877Z,30.00
2023-08-27T18:06:51.888Z,29.85
2023-08-27T18:09:19.106Z,29.73
2023-08-27T18:11:47.311Z,29.58
2023-08-27T18:14:14.341Z,30.17
2023-08-27T18:16:41.373Z,30.80
2023-08-27T18:19:09.733Z,30.89
2023-08-27T18:21:36.946Z,30.72
2023-08-27T18:24:04.203Z,30.47
2023-08-27T18:26:31.291Z,30.22
2023-08-27T18:28:58.442Z,29.99
2023-08-27T18:31:25.459Z,29.78
2023-08-27T18:33:52.545Z,29.59
2023-08-27T18:36:19.554Z,29.38
2023-08-27T18:38:46.652Z,29.87
2023-08-27T18:41:13.710Z,30.43
2023-08-27T18:43:40.683Z,30.49
2023-08-27T18:46:07.778Z,30.28
2023-08-27T18:48:34.906Z,29.99
2023-08-27T18:51:03.234Z,29.72
2023-08-27T18:53:30.298Z,29.46
2023-08-27T18:55:57.367Z,29.22
2023-08-27T18:58:24.435Z,28.98
2023-08-27T19:00:53.886Z,29.43
2023-08-27T19:03:21.165Z,29.95
2023-08-27T19:05:48.338Z,30.01
2023-08-27T19:08:15.411Z,29.81
2023-08-27T19:10:42.480Z,29.53
2023-08-27T19:13:12.320Z,29.25
2023-08-27T19:15:39.377Z,28.99
2023-08-27T19:18:06.555Z,28.76
2023-08-27T19:20:33.816Z,28.53
2023-08-27T19:23:00.829Z,29.04
2023-08-27T19:25:27.994Z,29.59
2023-08-27T19:27:55.343Z,29.63
2023-08-27T19:30:22.434Z,29.40
2023-08-27T19:32:49.773Z,29.11
2023-08-27T19:35:17.066Z,28.84
2023-08-27T19:37:44.218Z,28.59
2023-08-27T19:40:11.845Z,28.33
2023-08-27T19:42:40.836Z,28.05
2023-08-27T19:45:09.218Z,28.50
2023-08-27T19:47:36.404Z,29.00
2023-08-27T19:50:03.574Z,29.01
2023-08-27T19:52:30.947Z,28.75
2023-08-27T19:54:58.111Z,28.45
2023-08-27T19:57:25.218Z,28.14
2023-08-27T19:59:54.066Z,27.84
2023-08-27T20:02:22.395Z,27.53
2023-08-27T20:04:49.529Z,27.99
2023-08-27T20:07:16.633Z,28.49
2023-08-27T20:09:43.682Z,28.48
2023-08-27T20:12:10.791Z,28.24
2023-08-27T20:14:37.773Z,27.96
2023-08-27T20:17:04.819Z,27.68
2023-08-27T20:19:31.749Z,27.42
2023-08-27T20:21:58.746Z,27.16
2023-08-27T20:24:25.761Z,27.65
2023-08-27T20:26:53.089Z,28.18
2023-08-27T20:29:20.078Z,28.19
2023-08-27T20:31:47.136Z,27.99
2023-08-27T20:34:14.205Z,27.72
2023-08-27T20:36:41.356Z,27.44
2023-08-27T20:39:09.737Z,27.19
2023-08-27T20:41:36.931Z,26.94
2023-08-27T20:44:04.831Z,27.45
2023-08-27T20:46:31.925Z,27.99
2023-08-27T20:48:58.994Z,28.00
2023-08-27T20:51:25.962Z,27.75
2023-08-27T20:53:55.032Z,27.45
2023-08-27T20:56:22.296Z,27.18
2023-08-27T20:58:49.299Z,26.95
2023-08-27T21:01:16.355Z,26.68
2023-08-27T21:03:43.387Z,27.16
2023-08-27T21:06:10.406Z,27.70
2023-08-27T21:08:37.424Z,27.72
2023-08-27T21:11:09.345Z,27.49
2023-08-27T21:13:37.092Z,27.22
2023-08-27T21:16:04.380Z,26.92
2023-08-27T21:18:31.628Z,26.62
2023-08-27T21:20:58.640Z,26.94
2023-08-27T21:23:25.788Z,27.41
2023-08-27T21:25:52.895Z,27.40
2023-08-27T21:28:21.852Z,27.19
2023-08-27T21:30:49.331Z,26.93
2023-08-27T21:33:16.477Z,26.73
2023-08-27T21:35:43.641Z,26.41
2023-08-27T21:38:10.794Z,26.87
2023-08-27T21:40:39.856Z,27.39
2023-08-27T21:43:10.544Z,27.41
2023-08-27T21:45:37.822Z,27.20
2023-08-27T21:48:05.386Z,26.94
2023-08-27T21:50:32.616Z,26.70
2023-08-27T21:52:59.802Z,26.41
2023-08-27T21:55:27.064Z,26.85
2023-08-27T21:57:56.373Z,27.34
2023-08-27T22:00:23.779Z,27.36
2023-08-27T22:02:51.924Z,27.15
2023-08-27T22:05:19.216Z,26.89
2023-08-27T22:07:46.259Z,26.60
2023-08-27T22:10:13.570Z,26.28
2023-08-27T22:12:40.706Z,26.74
2023-08-27T22:16:23.670Z,27.09
2023-08-27T22:18:50.770Z,27.17
2023-08-27T22:21:17.797Z,26.96
2023-08-27T22:23:44.812Z,26.70
2023-08-27T22:26:11.800Z,26.43
2023-08-27T22:28:38.893Z,26.14
2023-08-27T22:31:06.112Z,26.62
2023-08-27T22:33:33.770Z,27.14
2023-08-27T22:36:00.749Z,27.16
2023-08-27T22:38:27.771Z,26.97
2023-08-27T22:40:54.778Z,26.68
2023-08-27T22:43:21.819Z,26.39
2023-08-27T22:45:49.562Z,26.08
2023-08-27T22:48:16.596Z,26.46
2023-08-27T22:50:43.680Z,26.93
2023-08-27T22:53:10.723Z,26.96
2023-08-27T22:55:40.952Z,26.75
2023-08-27T22:58:08.047Z,26.49
2023-08-27T23:00:35.129Z,26.23
2023-08-27T23:03:02.601Z,25.95
2023-08-27T23:05:30.373Z,26.43
2023-08-27T23:07:57.401Z,26.90
2023-08-27T23:10:24.506Z,26.85
2023-08-27T23:12:51.522Z,26.62
2023-08-27T23:15:18.489Z,26.32
2023-08-27T23:17:46.472Z,26.07
2023-08-27T23:20:13.511Z,25.81
2023-08-27T23:22:41.507Z,26.27
2023-08-27T23:25:08.889Z,26.77
2023-08-27T23:27:36.129Z,26.78
2023-08-27T23:30:04.275Z,26.55
2023-08-27T23:32:31.815Z,26.24
2023-08-27T23:34:58.920Z,25.95
2023-08-27T23:37:26.726Z,25.64
2023-08-27T23:39:53.765Z,26.10
2023-08-27T23:42:20.777Z,26.63
2023-08-27T23:44:59.332Z,26.67
2023-08-27T23:47:27.910Z,26.42
2023-08-27T23:49:54.946Z,26.13
2023-08-27T23:52:21.940Z,25.86
2023-08-27T23:54:48.962Z,25.60
2023-08-27T23:57:15.975Z,25.36
2023-08-27T23:59:43.049Z,25.88
